createdAt,value
2022-12-22T00:01:15.012Z,1.95
2022-12-22T00:04:00.438Z,1.85
2022-12-22T00:06:45.868Z,2.92
2022-12-22T00:09:31.406Z,2.13
2022-12-22T00:12:16.736Z,3.47
2022-12-22T00:15:02.108Z,1.45
2022-12-22T00:17:47.313Z,2.53
2022-12-22T00:20:34.349Z,1.48
2022-12-22T00:23:19.706Z,1.60
2022-12-22T00:26:05.451Z,1.48
2022-12-22T00:28:51.275Z,3.22
2022-12-22T00:31:37.070Z,2.55
2022-12-22T00:34:22.088Z,2.08
2022-12-22T00:37:07.455Z,3.47
2022-12-22T00:39:52.829Z,1.92
2022-12-22T00:42:38.058Z,1.35
2022-12-22T00:45:23.437Z,1.77
2022-12-22T00:48:08.984Z,2.95
2022-12-22T00:50:54.678Z,1.77
2022-12-22T00:53:40.725Z,3.33
2022-12-22T00:56:26.413Z,4.07
2022-12-22T00:59:12.858Z,2.08
2022-12-22T01:01:58.260Z,1.67
2022-12-22T01:04:43.659Z,2.30
2022-12-22T01:07:32.728Z,1.52
2022-12-22T01:10:17.898Z,2.08
2022-12-22T01:13:03.379Z,2.80
2022-12-22T01:15:49.092Z,2.45
2022-12-22T01:18:34.780Z,2.40
2022-12-22T01:21:20.480Z,3.50
2022-12-22T01:24:05.705Z,2.08
2022-12-22T01:26:51.328Z,3.78
2022-12-22T01:29:36.787Z,8.23
2022-12-22T01:32:22.029Z,2.40
2022-12-22T01:35:07.504Z,2.17
2022-12-22T01:37:53.004Z,3.55
2022-12-22T01:40:40.314Z,1.92
2022-12-22T01:43:45.229Z,2.55
2022-12-22T01:46:50.347Z,2.50
2022-12-22T01:49:45.025Z,2.15
2022-12-22T01:52:31.217Z,1.52
2022-12-22T01:55:18.920Z,1.25
2022-12-22T01:58:04.512Z,1.27
2022-12-22T02:00:50.065Z,1.10
2022-12-22T02:03:36.954Z,0.93
2022-12-22T02:06:39.208Z,4.28
2022-12-22T02:10:09.654Z,2.28
2022-12-22T02:13:08.940Z,2.55
2022-12-22T02:16:11.889Z,3.40
2022-12-22T02:19:05.190Z,2.40
2022-12-22T02:21:53.764Z,2.28
2022-12-22T02:24:51.890Z,3.95
2022-12-22T02:27:37.255Z,2.30
2022-12-22T02:30:25.537Z,1.77
2022-12-22T02:33:10.632Z,1.73
2022-12-22T02:36:08.323Z,2.13
2022-12-22T02:38:59.745Z,1.73
2022-12-22T02:42:16.115Z,1.10
2022-12-22T02:45:20.619Z,2.53
2022-12-22T02:48:53.440Z,2.20
2022-12-22T02:51:41.863Z,2.58
2022-12-22T02:54:27.235Z,3.40
2022-12-22T02:57:12.934Z,2.78
2022-12-22T02:59:58.075Z,4.53
2022-12-22T03:02:43.531Z,2.28
2022-12-22T03:05:29.002Z,2.45
2022-12-22T03:08:14.611Z,1.52
2022-12-22T03:11:00.004Z,2.30
2022-12-22T03:13:45.090Z,3.83
2022-12-22T03:16:30.623Z,1.90
2022-12-22T03:19:15.781Z,2.08
2022-12-22T03:22:01.081Z,3.28
2022-12-22T03:24:46.384Z,4.60
2022-12-22T03:27:13.175Z,2.55
2022-12-22T03:29:39.955Z,4.00
2022-12-22T03:32:06.665Z,2.63
2022-12-22T03:34:33.396Z,2.63
2022-12-22T03:37:00.193Z,2.70
2022-12-22T03:39:26.905Z,3.15
2022-12-22T03:42:12.194Z,3.42
2022-12-22T03:44:57.692Z,5.38
2022-12-22T03:47:24.410Z,2.35
2022-12-22T03:49:51.847Z,1.90
2022-12-22T03:52:20.309Z,2.38
2022-12-22T03:54:47.023Z,2.95
2022-12-22T03:57:13.761Z,2.55
2022-12-22T03:59:40.475Z,2.63
2022-12-22T04:02:07.324Z,2.20
2022-12-22T04:04:34.443Z,3.00
2022-12-22T04:07:01.164Z,2.42
2022-12-22T04:09:29.297Z,3.25
2022-12-22T04:12:14.466Z,1.00
2022-12-22T04:14:41.191Z,3.42
2022-12-22T04:17:08.194Z,3.30
2022-12-22T04:19:34.924Z,3.38
2022-12-22T04:22:01.661Z,5.18
2022-12-22T04:24:28.400Z,3.47
2022-12-22T04:26:55.147Z,2.95
2022-12-22T04:29:23.372Z,3.83
2022-12-22T04:31:50.194Z,3.75
2022-12-22T04:34:16.953Z,3.47
2022-12-22T04:36:43.815Z,3.08
2022-12-22T04:39:10.556Z,2.80
2022-12-22T04:41:37.269Z,2.50
2022-12-22T04:44:04.064Z,4.60
2022-12-22T04:46:30.927Z,2.65
2022-12-22T04:49:00.320Z,3.78
2022-12-22T04:51:27.829Z,3.35
2022-12-22T04:53:54.564Z,2.75
2022-12-22T04:56:21.264Z,3.97
2022-12-22T04:58:48.023Z,2.63
2022-12-22T05:01:16.835Z,3.60
2022-12-22T05:03:43.815Z,2.90
2022-12-22T05:06:10.979Z,1.88
2022-12-22T05:08:37.883Z,2.10
2022-12-22T05:11:04.855Z,4.38
2022-12-22T05:13:31.723Z,3.30
2022-12-22T05:16:06.022Z,3.53
2022-12-22T05:18:33.814Z,3.35
2022-12-22T05:21:09.819Z,3.70
2022-12-22T05:23:36.598Z,3.78
2022-12-22T05:26:03.428Z,4.88
2022-12-22T05:28:30.173Z,3.97
2022-12-22T05:30:57.358Z,2.50
2022-12-22T05:33:24.838Z,3.53
2022-12-22T05:35:52.439Z,3.88
2022-12-22T05:38:19.161Z,2.78
2022-12-22T05:40:45.915Z,3.33
2022-12-22T05:43:12.700Z,4.85
2022-12-22T05:45:39.466Z,2.83
2022-12-22T05:48:06.337Z,2.47
2022-12-22T05:50:33.200Z,3.90
2022-12-22T05:52:59.966Z,3.35
2022-12-22T05:55:27.697Z,2.65
2022-12-22T05:57:54.414Z,2.70
2022-12-22T06:00:21.676Z,3.78
2022-12-22T06:02:48.435Z,3.92
2022-12-22T06:05:15.462Z,4.38
2022-12-22T06:07:42.362Z,3.60
2022-12-22T06:10:12.671Z,4.20
2022-12-22T06:12:40.324Z,3.38
2022-12-22T06:15:07.766Z,2.67
2022-12-22T06:17:39.066Z,3.53
2022-12-22T06:20:11.064Z,3.80
2022-12-22T06:22:37.839Z,4.72
2022-12-22T06:25:04.926Z,3.28
2022-12-22T06:27:31.619Z,2.85
2022-12-22T06:29:59.701Z,2.95
2022-12-22T06:32:26.463Z,2.33
2022-12-22T06:34:53.202Z,3.83
2022-12-22T06:37:19.920Z,5.15
2022-12-22T06:39:46.633Z,3.10
2022-12-22T06:42:31.760Z,3.40
2022-12-22T06:44:59.470Z,4.63
2022-12-22T06:47:26.217Z,3.22
2022-12-22T06:49:52.987Z,3.42
2022-12-22T06:52:19.687Z,3.58
2022-12-22T06:54:46.470Z,4.45
2022-12-22T06:57:13.200Z,4.25
2022-12-22T06:59:39.928Z,2.55
2022-12-22T07:02:06.977Z,2.25
2022-12-22T07:04:33.828Z,3.97
2022-12-22T07:07:00.998Z,3.30
2022-12-22T07:09:27.707Z,3.25
2022-12-22T07:11:54.488Z,3.40
2022-12-22T07:14:21.230Z,2.85
2022-12-22T07:16:48.101Z,3.65
2022-12-22T07:19:14.890Z,3.90
2022-12-22T07:21:41.597Z,4.72
2022-12-22T07:24:08.668Z,3.53
2022-12-22T07:26:35.450Z,2.10
2022-12-22T07:29:02.570Z,4.95
2022-12-22T07:31:29.441Z,4.30
2022-12-22T07:33:56.211Z,3.00
2022-12-22T07:36:22.956Z,5.60
2022-12-22T07:38:50.571Z,4.80
2022-12-22T07:41:36.808Z,3.67
2022-12-22T07:44:04.287Z,6.40
2022-12-22T07:46:33.243Z,3.80
2022-12-22T07:49:18.345Z,4.00
2022-12-22T07:51:45.161Z,5.18
2022-12-22T07:54:13.881Z,3.17
2022-12-22T07:56:40.847Z,6.00
2022-12-22T07:59:07.691Z,6.20
2022-12-22T08:01:34.711Z,10.82
2022-12-22T08:04:03.267Z,4.40
2022-12-22T08:06:30.214Z,5.55
2022-12-22T08:08:56.944Z,8.25
2022-12-22T08:11:23.675Z,4.47
2022-12-22T08:13:51.745Z,3.72
2022-12-22T08:16:22.368Z,4.03
2022-12-22T08:18:49.629Z,6.72
2022-12-22T08:21:16.430Z,8.02
2022-12-22T08:23:43.217Z,6.88
2022-12-22T08:26:16.193Z,6.50
2022-12-22T08:28:49.805Z,5.82
2022-12-22T08:31:16.987Z,3.67
2022-12-22T08:33:44.042Z,5.57
2022-12-22T08:36:11.501Z,3.22
2022-12-22T08:38:38.751Z,4.28
2022-12-22T08:41:05.813Z,5.43
2022-12-22T08:43:33.854Z,5.38
2022-12-22T08:46:01.257Z,5.07
2022-12-22T08:48:28.529Z,5.53
2022-12-22T08:50:55.249Z,3.58
2022-12-22T08:54:02.592Z,4.38
2022-12-22T08:56:08.796Z,4.05
2022-12-22T08:58:35.579Z,4.82
2022-12-22T09:01:03.757Z,5.18
2022-12-22T09:03:31.648Z,5.60
2022-12-22T09:06:03.694Z,3.88
2022-12-22T09:08:30.583Z,4.22
2022-12-22T09:11:03.328Z,6.15
2022-12-22T09:13:30.040Z,4.55
2022-12-22T09:15:56.738Z,4.30
2022-12-22T09:18:23.469Z,3.92
2022-12-22T09:20:55.748Z,4.70
2022-12-22T09:23:22.501Z,5.05
2022-12-22T09:25:49.216Z,5.50
2022-12-22T09:28:16.013Z,6.32
2022-12-22T09:30:42.739Z,4.90
2022-12-22T09:33:09.464Z,4.35
2022-12-22T09:35:36.262Z,4.18
2022-12-22T09:38:03.020Z,5.13
2022-12-22T09:40:29.800Z,5.63
2022-12-22T09:42:56.600Z,4.20
2022-12-22T09:45:23.366Z,3.63
2022-12-22T09:47:56.430Z,6.60
2022-12-22T09:50:24.512Z,7.95
2022-12-22T09:52:57.484Z,5.32
2022-12-22T09:55:24.197Z,6.22
2022-12-22T09:57:51.437Z,5.35
2022-12-22T10:00:20.341Z,6.55
2022-12-22T10:03:15.201Z,7.20
2022-12-22T10:05:51.301Z,5.57
2022-12-22T10:08:37.388Z,3.72
2022-12-22T10:11:04.222Z,5.90
2022-12-22T10:13:31.846Z,4.60
2022-12-22T10:15:58.785Z,7.38
2022-12-22T10:18:26.875Z,4.25
2022-12-22T10:21:07.253Z,6.38
2022-12-22T10:23:35.975Z,4.60
2022-12-22T10:26:28.806Z,5.05
2022-12-22T10:29:14.520Z,4.63
2022-12-22T10:32:05.609Z,5.63
2022-12-22T10:34:33.686Z,5.38
2022-12-22T10:37:03.263Z,4.68
2022-12-22T10:39:33.235Z,4.25
2022-12-22T10:42:03.309Z,4.53
2022-12-22T10:44:34.049Z,5.60
2022-12-22T10:47:15.579Z,5.53
2022-12-22T10:52:27.355Z,5.35
2022-12-22T10:55:21.311Z,5.35
2022-12-22T10:57:48.624Z,6.38
2022-12-22T11:00:31.895Z,6.57
2022-12-22T11:03:00.465Z,4.43
2022-12-22T11:05:28.470Z,4.57
2022-12-22T11:07:55.300Z,5.15
2022-12-22T11:10:28.342Z,4.80
2022-12-22T11:13:27.531Z,4.88
2022-12-22T11:16:14.938Z,5.18
2022-12-22T11:19:27.413Z,5.00
2022-12-22T11:22:03.230Z,5.57
2022-12-22T11:24:39.573Z,4.28
2022-12-22T11:27:32.257Z,4.68
2022-12-22T11:30:21.527Z,4.75
2022-12-22T11:33:00.070Z,5.47
2022-12-22T11:35:42.382Z,4.78
2022-12-22T11:38:22.858Z,4.55
2022-12-22T11:40:54.403Z,5.28
2022-12-22T11:43:32.365Z,4.00
2022-12-22T11:46:10.134Z,5.47
2022-12-22T11:48:58.195Z,4.63
2022-12-22T11:51:43.934Z,6.50
2022-12-22T11:54:31.825Z,4.20
2022-12-22T11:57:08.844Z,5.35
2022-12-22T11:59:58.756Z,7.43
2022-12-22T12:02:56.148Z,5.03
2022-12-22T12:05:35.652Z,6.65
2022-12-22T12:08:14.167Z,4.82
2022-12-22T12:11:18.406Z,5.00
2022-12-22T12:13:57.352Z,5.22
2022-12-22T12:16:42.943Z,4.78
2022-12-22T12:19:37.576Z,5.13
2022-12-22T12:22:05.506Z,5.70
2022-12-22T12:24:46.766Z,5.93
2022-12-22T12:27:32.454Z,4.65
2022-12-22T12:30:37.024Z,6.05
2022-12-22T12:33:03.711Z,3.88
2022-12-22T12:35:45.464Z,4.63
2022-12-22T12:39:07.029Z,5.18
2022-12-22T12:41:27.194Z,3.67
2022-12-22T12:43:55.023Z,7.05
2022-12-22T12:46:40.479Z,3.33
2022-12-22T12:49:36.663Z,6.78
2022-12-22T12:52:04.062Z,6.18
2022-12-22T12:54:30.753Z,6.43
2022-12-22T12:57:01.361Z,10.25
2022-12-22T12:59:46.531Z,5.57
2022-12-22T13:02:32.532Z,5.68
2022-12-22T13:05:04.462Z,5.25
2022-12-22T13:08:08.961Z,5.72
2022-12-22T13:10:40.965Z,5.53
2022-12-22T13:13:28.091Z,5.15
2022-12-22T13:16:01.571Z,6.18
2022-12-22T13:18:35.531Z,4.30
2022-12-22T13:21:50.771Z,7.13
2022-12-22T13:26:51.342Z,5.63
2022-12-22T13:29:40.025Z,4.10
2022-12-22T13:32:37.899Z,9.02
2022-12-22T13:35:33.689Z,7.78
2022-12-22T13:38:02.014Z,6.03
2022-12-22T13:40:31.434Z,5.90
2022-12-22T13:43:06.854Z,6.07
2022-12-22T13:46:01.873Z,5.38
2022-12-22T13:48:39.852Z,6.25
2022-12-22T13:51:29.940Z,5.22
2022-12-22T13:54:10.335Z,6.57
2022-12-22T13:56:56.867Z,6.93
2022-12-22T13:59:39.617Z,11.55
2022-12-22T14:02:09.512Z,7.95
2022-12-22T14:04:39.049Z,6.63
2022-12-22T14:07:12.838Z,6.95
2022-12-22T14:09:44.420Z,9.55
2022-12-22T14:12:19.850Z,7.38
2022-12-22T14:14:47.901Z,8.15
2022-12-22T14:17:34.090Z,5.80
2022-12-22T14:20:02.690Z,4.78
2022-12-22T14:22:34.413Z,6.18
2022-12-22T14:25:28.245Z,7.70
2022-12-22T14:27:55.966Z,7.10
2022-12-22T14:30:24.812Z,5.47
2022-12-22T14:32:55.426Z,6.75
2022-12-22T14:35:22.816Z,9.15
2022-12-22T14:38:09.096Z,4.50
2022-12-22T14:40:41.388Z,8.32
2022-12-22T14:43:29.639Z,7.07
2022-12-22T14:46:11.127Z,7.95
2022-12-22T14:48:45.710Z,6.72
2022-12-22T14:51:18.969Z,5.13
2022-12-22T14:53:48.150Z,5.65
2022-12-22T14:56:15.466Z,6.45
2022-12-22T14:58:43.063Z,6.30
2022-12-22T15:01:20.338Z,5.28
2022-12-22T15:04:05.266Z,6.07
2022-12-22T15:06:36.811Z,7.70
2022-12-22T15:09:11.863Z,10.95
2022-12-22T15:11:56.348Z,8.07
2022-12-22T15:14:26.776Z,11.85
2022-12-22T15:16:57.879Z,5.15
2022-12-22T15:19:24.718Z,6.57
2022-12-22T15:21:51.672Z,9.70
2022-12-22T15:24:18.578Z,7.55
2022-12-22T15:26:45.575Z,8.48
2022-12-22T15:29:12.387Z,6.03
2022-12-22T15:31:40.649Z,6.43
2022-12-22T15:34:19.513Z,10.02
2022-12-22T15:36:46.261Z,8.38
2022-12-22T15:39:14.837Z,10.20
2022-12-22T15:41:42.004Z,8.30
2022-12-22T15:44:10.573Z,7.30
2022-12-22T15:46:40.568Z,11.27
2022-12-22T15:49:20.626Z,8.80
2022-12-22T15:51:52.832Z,8.02
2022-12-22T15:54:19.876Z,8.57
2022-12-22T15:56:46.689Z,8.85
2022-12-22T15:59:16.874Z,8.75
2022-12-22T16:01:43.908Z,9.32
2022-12-22T16:04:10.907Z,9.57
2022-12-22T16:06:38.348Z,7.43
2022-12-22T16:09:12.819Z,8.23
2022-12-22T16:11:40.877Z,7.90
2022-12-22T16:14:11.608Z,7.47
2022-12-22T16:16:40.362Z,5.95
2022-12-22T16:19:11.271Z,9.27
2022-12-22T16:21:39.134Z,6.75
2022-12-22T16:24:06.976Z,8.95
2022-12-22T16:26:33.692Z,6.60
2022-12-22T16:29:00.437Z,9.57
2022-12-22T16:31:27.296Z,9.65
2022-12-22T16:33:54.171Z,8.60
2022-12-22T16:36:20.975Z,8.40
2022-12-22T16:38:48.066Z,7.47
2022-12-22T16:41:24.168Z,5.90
2022-12-22T16:43:52.308Z,8.65
2022-12-22T16:46:20.700Z,9.27
2022-12-22T16:48:53.949Z,6.80
2022-12-22T16:51:27.142Z,5.03
2022-12-22T16:53:54.214Z,5.82
2022-12-22T16:56:23.283Z,5.60
2022-12-22T16:58:50.382Z,5.82
2022-12-22T17:01:40.758Z,6.55
2022-12-22T17:04:33.943Z,6.95
2022-12-22T17:07:04.912Z,6.35
2022-12-22T17:09:41.944Z,8.38
2022-12-22T17:12:11.274Z,7.88
2022-12-22T17:14:44.283Z,5.70
2022-12-22T17:17:34.074Z,7.63
2022-12-22T17:20:06.236Z,6.30
2022-12-22T17:22:36.922Z,5.40
2022-12-22T17:25:14.825Z,6.35
2022-12-22T17:27:47.192Z,5.43
2022-12-22T17:30:25.065Z,3.90
2022-12-22T17:32:56.484Z,5.78
2022-12-22T17:35:27.098Z,8.25
2022-12-22T17:37:54.526Z,7.28
2022-12-22T17:40:26.641Z,5.28
2022-12-22T17:42:58.958Z,5.60
2022-12-22T17:45:25.757Z,4.18
2022-12-22T17:47:52.573Z,4.18
2022-12-22T17:50:20.284Z,6.82
2022-12-22T17:52:47.070Z,4.97
2022-12-22T17:56:05.201Z,3.28
2022-12-22T17:58:15.737Z,3.55
2022-12-22T18:00:42.475Z,4.35
2022-12-22T18:03:13.585Z,4.28
2022-12-22T18:05:45.057Z,5.43
2022-12-22T18:08:16.179Z,6.05
2022-12-22T18:10:42.937Z,3.83
2022-12-22T18:13:22.727Z,4.28
2022-12-22T18:15:49.547Z,4.15
2022-12-22T18:18:17.346Z,4.18
2022-12-22T18:20:44.396Z,4.53
2022-12-22T18:23:17.434Z,4.82
2022-12-22T18:25:44.379Z,3.58
2022-12-22T18:28:15.877Z,3.22
2022-12-22T18:30:43.780Z,5.30
2022-12-22T18:33:11.797Z,3.63
2022-12-22T18:35:39.449Z,4.38
2022-12-22T18:38:07.079Z,4.88
2022-12-22T18:40:43.610Z,6.40
2022-12-22T18:43:14.429Z,3.10
2022-12-22T18:45:41.558Z,4.75
2022-12-22T18:48:09.576Z,6.85
2022-12-22T18:50:36.645Z,7.22
2022-12-22T18:53:11.769Z,3.65
2022-12-22T18:55:39.759Z,10.73
2022-12-22T18:58:09.455Z,4.88
2022-12-22T19:00:37.144Z,5.00
2022-12-22T19:03:11.949Z,5.00
2022-12-22T19:05:43.357Z,9.20
2022-12-22T19:08:16.057Z,4.55
2022-12-22T19:10:48.399Z,6.78
2022-12-22T19:13:27.560Z,11.77
2022-12-22T19:15:54.752Z,6.32
2022-12-22T19:18:26.523Z,5.07
2022-12-22T19:20:54.648Z,4.03
2022-12-22T19:23:23.627Z,9.90
2022-12-22T19:25:52.592Z,4.63
2022-12-22T19:28:22.436Z,3.30
2022-12-22T19:30:49.499Z,6.82
2022-12-22T19:33:41.595Z,3.85
2022-12-22T19:36:15.164Z,9.05
2022-12-22T19:38:44.011Z,6.90
2022-12-22T19:41:40.053Z,5.10
2022-12-22T19:44:17.053Z,6.20
2022-12-22T19:46:43.795Z,5.93
2022-12-22T19:49:18.577Z,5.70
2022-12-22T19:51:45.411Z,4.53
2022-12-22T19:54:12.208Z,5.45
2022-12-22T19:56:39.318Z,5.25
2022-12-22T19:59:19.089Z,6.28
2022-12-22T20:01:48.867Z,4.43
2022-12-22T20:04:15.673Z,6.07
2022-12-22T20:06:42.391Z,5.10
2022-12-22T20:09:09.115Z,5.68
2022-12-22T20:11:36.037Z,5.88
2022-12-22T20:14:02.752Z,3.63
2022-12-22T20:16:29.498Z,2.60
2022-12-22T20:18:56.221Z,5.10
2022-12-22T20:21:27.048Z,3.75
2022-12-22T20:23:54.163Z,7.07
2022-12-22T20:26:22.431Z,3.67
2022-12-22T20:28:51.943Z,4.25
2022-12-22T20:31:20.181Z,6.63
2022-12-22T20:33:47.111Z,4.10
2022-12-22T20:36:26.369Z,5.20
2022-12-22T20:38:54.131Z,2.97
2022-12-22T20:41:21.195Z,12.90
2022-12-22T20:43:48.272Z,7.70
2022-12-22T20:46:17.249Z,2.75
2022-12-22T20:48:50.499Z,8.32
2022-12-22T20:51:18.942Z,4.30
2022-12-22T20:53:46.005Z,3.35
2022-12-22T20:56:26.976Z,5.10
2022-12-22T20:58:54.027Z,4.70
2022-12-22T21:01:20.896Z,4.65
2022-12-22T21:03:47.946Z,4.00
2022-12-22T21:06:29.329Z,4.10
2022-12-22T21:08:57.444Z,6.53
2022-12-22T21:11:24.533Z,5.43
2022-12-22T21:13:51.604Z,2.05
2022-12-22T21:16:20.771Z,6.07
2022-12-22T21:18:47.586Z,3.70
2022-12-22T21:21:14.820Z,4.97
2022-12-22T21:23:42.375Z,2.22
2022-12-22T21:26:26.391Z,5.30
2022-12-22T21:28:53.194Z,4.22
2022-12-22T21:31:20.081Z,3.40
2022-12-22T21:33:47.246Z,3.05
2022-12-22T21:36:30.744Z,3.17
2022-12-22T21:39:01.820Z,2.63
2022-12-22T21:41:46.852Z,3.75
2022-12-22T21:44:14.058Z,3.08
2022-12-22T21:46:44.419Z,3.92
2022-12-22T21:49:21.940Z,3.85
2022-12-22T21:51:49.549Z,5.00
2022-12-22T21:54:16.812Z,2.83
2022-12-22T21:56:44.117Z,2.00
2022-12-22T21:59:11.342Z,2.60
2022-12-22T22:01:38.251Z,1.63
2022-12-22T22:04:05.234Z,2.45
2022-12-22T22:06:31.992Z,1.77
2022-12-22T22:08:58.709Z,2.70
2022-12-22T22:11:25.720Z,2.47
2022-12-22T22:13:52.865Z,4.65
2022-12-22T22:16:19.696Z,1.00
2022-12-22T22:18:46.991Z,2.10
2022-12-22T22:21:15.126Z,2.60
2022-12-22T22:23:41.908Z,4.72
2022-12-22T22:26:08.637Z,2.80
2022-12-22T22:28:35.528Z,2.80
2022-12-22T22:31:02.588Z,3.42
2022-12-22T22:33:29.360Z,1.85
2022-12-22T22:35:59.351Z,3.28
2022-12-22T22:38:30.683Z,0.85
2022-12-22T22:40:57.976Z,3.80
2022-12-22T22:43:24.732Z,3.83
2022-12-22T22:45:51.493Z,2.38
2022-12-22T22:48:20.318Z,2.03
2022-12-22T22:50:47.475Z,2.10
2022-12-22T22:53:15.382Z,1.58
2022-12-22T22:55:42.587Z,1.85
2022-12-22T22:58:11.452Z,3.13
2022-12-22T23:00:38.725Z,1.35
2022-12-22T23:03:05.656Z,2.28
2022-12-22T23:05:32.482Z,2.60
2022-12-22T23:07:59.209Z,1.52
2022-12-22T23:10:25.991Z,4.13
2022-12-22T23:12:52.714Z,2.47
2022-12-22T23:15:19.479Z,2.05
2022-12-22T23:17:46.693Z,3.22
2022-12-22T23:20:13.668Z,2.70
2022-12-22T23:22:40.396Z,1.63
2022-12-22T23:25:08.037Z,2.17
2022-12-22T23:27:34.813Z,2.83
2022-12-22T23:30:01.685Z,1.67
2022-12-22T23:32:28.407Z,2.30
2022-12-22T23:34:55.128Z,2.58
2022-12-22T23:37:21.846Z,2.80
2022-12-22T23:39:49.690Z,4.93
2022-12-22T23:42:16.418Z,0.90
2022-12-22T23:44:44.049Z,4.13
2022-12-22T23:47:10.809Z,2.70
2022-12-22T23:49:37.576Z,1.05
2022-12-22T23:52:04.418Z,0.82
2022-12-22T23:54:31.151Z,2.83
2022-12-22T23:56:58.042Z,2.20
2022-12-22T23:59:24.827Z,0.95
